KDLF

Laughlin AFB Airport

Del Rio, Texas, USA
METAR KDLF 221356Z 12003KT 10SM VCSH SCT047 BKN055 BKN090 15/14 A3020 RMK AO2A DZE14 SLPNO P0001 $
Observed Flight Rules
Oct-22 @ 13:56 UTC (55 minutes ago) Visual Flight Rules
Wind Visibility Clouds
120° at 3 knots 10 miles
  • Scattered at 4,700' AGL
  • Broken at 5,500' AGL
  • Broken at 9,000' AGL
Temperatures Readings Precipitation
Current 15°C / 59°F
Dewpoint 14°C / 57°F
Humidity 94%
Altimeter 30.2" Hg
Pressure 1023 hPa
Elevation 330
Current Rain 0.01
METAR KDLF 221356Z 12003KT 10SM VCSH SCT047 BKN055 BKN090 15/14 A3020 RMK AO2A DZE14 SLPNO P0001 $
Observed Flight Rules
Oct-22 @ 13:56 UTC
(55 minutes ago)
VFR
Wind Visibility
120° at 3 knots 10 miles
Clouds
  • Scattered at 4,700' AGL
  • Broken at 5,500' AGL
  • Broken at 9,000' AGL
Temperature Dewpoint
15°C / 59°F 14°C / 57°F
Humidity Altimeter Pressure
94% 30.2" Hg 1023 hPa
Current Rain
0.01